createdAt,value
2023-01-28T00:01:36.372Z,-1.29
2023-01-28T00:04:04.045Z,-1.25
2023-01-28T00:06:31.374Z,-1.22
2023-01-28T00:08:58.701Z,-1.15
2023-01-28T00:11:26.618Z,-1.19
2023-01-28T00:13:54.947Z,-1.28
2023-01-28T00:16:22.897Z,-1.30
2023-01-28T00:18:50.221Z,-1.28
2023-01-28T00:21:17.404Z,-1.32
2023-01-28T00:23:54.623Z,-1.37
2023-01-28T00:26:24.587Z,-1.29
2023-01-28T00:28:51.905Z,-1.27
2023-01-28T00:31:25.259Z,-1.55
2023-01-28T00:33:56.246Z,-1.30
2023-01-28T00:36:26.349Z,-1.21
2023-01-28T00:39:00.209Z,-1.38
2023-01-28T00:41:29.917Z,-1.38
2023-01-28T00:43:59.314Z,-1.34
2023-01-28T00:46:27.451Z,-1.29
2023-01-28T00:48:54.882Z,-1.18
2023-01-28T00:51:22.458Z,-1.25
2023-01-28T00:53:50.144Z,-1.35
2023-01-28T00:56:19.644Z,-1.37
2023-01-28T00:58:47.558Z,-1.26
2023-01-28T01:01:27.112Z,-1.41
2023-01-28T01:04:02.928Z,-1.44
2023-01-28T01:06:37.820Z,-1.48
2023-01-28T01:09:08.787Z,-1.49
2023-01-28T01:11:36.568Z,-1.44
2023-01-28T01:14:05.494Z,-1.59
2023-01-28T01:16:35.472Z,-1.41
2023-01-28T01:19:02.962Z,-1.47
2023-01-28T01:21:31.114Z,-1.36
2023-01-28T01:23:58.578Z,-1.36
2023-01-28T01:26:27.435Z,-1.39
2023-01-28T01:28:58.302Z,-1.36
2023-01-28T01:31:25.769Z,-1.38
2023-01-28T01:33:53.701Z,-1.29
2023-01-28T01:36:22.015Z,-1.31
2023-01-28T01:38:54.882Z,-1.42
2023-01-28T01:41:32.102Z,-1.36
2023-01-28T01:44:04.983Z,-1.54
2023-01-28T01:46:51.760Z,-1.54
2023-01-28T01:49:28.702Z,-1.37
2023-01-28T01:52:13.357Z,-1.39
2023-01-28T01:54:44.543Z,-1.62
2023-01-28T01:57:17.210Z,-1.42
2023-01-28T01:59:44.776Z,-1.54
2023-01-28T02:02:12.937Z,-1.46
2023-01-28T02:04:44.784Z,-1.36
2023-01-28T02:07:19.330Z,-1.51
2023-01-28T02:09:46.617Z,-1.53
2023-01-28T02:12:29.874Z,-1.44
2023-01-28T02:15:22.094Z,-1.53
2023-01-28T02:17:51.212Z,-1.52
2023-01-28T02:20:28.073Z,-1.35
2023-01-28T02:23:19.998Z,-1.47
2023-01-28T02:26:39.594Z,-1.50
2023-01-28T02:29:21.546Z,-1.26
2023-01-28T02:32:03.711Z,-1.37
2023-01-28T02:34:59.650Z,-1.40
2023-01-28T02:37:48.530Z,-1.41
2023-01-28T02:40:27.814Z,-1.51
2023-01-28T02:42:59.966Z,-1.46
2023-01-28T02:45:51.273Z,-1.46
2023-01-28T02:48:22.428Z,-1.38
2023-01-28T02:50:59.890Z,-1.47
2023-01-28T02:53:47.436Z,-1.38
2023-01-28T02:56:44.275Z,-1.31
2023-01-28T02:59:36.935Z,-1.41
2023-01-28T03:02:30.161Z,-1.40
2023-01-28T03:05:11.974Z,-1.52
2023-01-28T03:07:39.818Z,-1.37
2023-01-28T03:10:15.984Z,-1.42
2023-01-28T03:13:04.250Z,-1.45
2023-01-28T03:16:08.970Z,-1.39
2023-01-28T03:19:06.498Z,-1.35
2023-01-28T03:21:59.301Z,-1.51
2023-01-28T03:25:07.266Z,-1.40
2023-01-28T03:28:08.557Z,-1.43
2023-01-28T03:31:27.149Z,-1.46
2023-01-28T03:34:17.460Z,-1.55
2023-01-28T03:36:53.340Z,-1.49
2023-01-28T03:39:41.321Z,-1.44
2023-01-28T03:42:14.288Z,-1.39
2023-01-28T03:45:17.414Z,-1.36
2023-01-28T03:47:46.948Z,-1.34
2023-01-28T03:50:14.234Z,-1.28
2023-01-28T03:52:51.452Z,-1.31
2023-01-28T03:55:29.680Z,-1.46
2023-01-28T03:57:56.973Z,-1.39
2023-01-28T04:00:24.378Z,-1.35
2023-01-28T04:02:51.664Z,-1.38
2023-01-28T04:05:21.680Z,-1.38
2023-01-28T04:07:51.671Z,-1.39
2023-01-28T04:10:26.511Z,-1.31
2023-01-28T04:13:20.127Z,-1.30
2023-01-28T04:15:47.855Z,-1.50
2023-01-28T04:18:16.383Z,-1.49
2023-01-28T04:20:43.661Z,-1.44
2023-01-28T04:23:11.299Z,-1.28
2023-01-28T04:25:38.540Z,-1.29
2023-01-28T04:28:09.029Z,-1.23
2023-01-28T04:30:36.390Z,-1.35
2023-01-28T04:33:24.075Z,-1.52
2023-01-28T04:35:51.329Z,-1.45
2023-01-28T04:38:42.029Z,-1.39
2023-01-28T04:41:24.866Z,-1.54
2023-01-28T04:43:52.360Z,-1.43
2023-01-28T04:46:55.275Z,-1.49
2023-01-28T04:49:42.459Z,-1.35
2023-01-28T04:52:26.889Z,-1.40
2023-01-28T04:55:05.663Z,-1.35
2023-01-28T04:57:33.537Z,-1.48
2023-01-28T05:00:01.458Z,-1.46
2023-01-28T05:02:28.837Z,-1.54
2023-01-28T05:04:56.039Z,-1.57
2023-01-28T05:07:37.634Z,-1.64
2023-01-28T05:10:05.708Z,-1.61
2023-01-28T05:12:34.189Z,-1.63
2023-01-28T05:15:05.264Z,-1.73
2023-01-28T05:17:32.584Z,-1.80
2023-01-28T05:19:59.841Z,-1.83
2023-01-28T05:22:29.197Z,-1.78
2023-01-28T05:25:28.959Z,-1.88
2023-01-28T05:27:57.302Z,-1.75
2023-01-28T05:30:26.056Z,-1.61
2023-01-28T05:32:56.990Z,-1.56
2023-01-28T05:35:24.364Z,-1.63
2023-01-28T05:37:52.127Z,-1.68
2023-01-28T05:40:19.960Z,-1.81
2023-01-28T05:42:47.307Z,-1.72
2023-01-28T05:45:26.965Z,-1.94
2023-01-28T05:48:04.130Z,-1.89
2023-01-28T05:50:43.229Z,-1.85
2023-01-28T05:53:20.586Z,-1.90
2023-01-28T05:55:50.740Z,-1.91
2023-01-28T05:58:18.541Z,-1.69
2023-01-28T06:00:46.089Z,-1.78
2023-01-28T06:03:14.479Z,-1.58
2023-01-28T06:05:41.872Z,-1.72
2023-01-28T06:08:09.159Z,-1.67
2023-01-28T06:10:37.269Z,-1.73
2023-01-28T06:13:04.891Z,-1.67
2023-01-28T06:15:37.848Z,-1.61
2023-01-28T06:18:24.365Z,-1.74
2023-01-28T06:20:53.208Z,-1.62
2023-01-28T06:23:20.430Z,-1.74
2023-01-28T06:25:47.756Z,-1.70
2023-01-28T06:28:16.511Z,-1.60
2023-01-28T06:30:43.821Z,-1.51
2023-01-28T06:33:11.089Z,-1.64
2023-01-28T06:35:38.278Z,-1.58
2023-01-28T06:38:05.558Z,-1.60
2023-01-28T06:40:32.834Z,-1.63
2023-01-28T06:43:00.136Z,-1.68
2023-01-28T06:45:27.377Z,-1.63
2023-01-28T06:47:54.622Z,-1.67
2023-01-28T06:50:21.872Z,-1.67
2023-01-28T06:52:49.111Z,-1.52
2023-01-28T06:55:19.134Z,-1.48
2023-01-28T06:57:46.416Z,-1.52
2023-01-28T07:00:16.887Z,-1.74
2023-01-28T07:02:44.335Z,-1.54
2023-01-28T07:05:11.976Z,-1.53
2023-01-28T07:07:41.724Z,-1.65
2023-01-28T07:10:11.193Z,-1.54
2023-01-28T07:12:38.589Z,-1.46
2023-01-28T07:15:06.806Z,-1.45
2023-01-28T07:17:34.295Z,-1.46
2023-01-28T07:20:01.567Z,-1.32
2023-01-28T07:22:28.859Z,-1.41
2023-01-28T07:24:55.983Z,-1.44
2023-01-28T07:27:23.256Z,-1.38
2023-01-28T07:29:50.427Z,-1.26
2023-01-28T07:32:17.805Z,-1.16
2023-01-28T07:34:45.127Z,-1.24
2023-01-28T07:37:12.358Z,-1.14
2023-01-28T07:39:39.602Z,-1.14
2023-01-28T07:42:07.015Z,-1.13
2023-01-28T07:44:39.150Z,-1.17
2023-01-28T07:47:07.070Z,-0.98
2023-01-28T07:49:34.944Z,-1.19
2023-01-28T07:52:02.340Z,-0.92
2023-01-28T07:54:29.976Z,-0.97
2023-01-28T07:57:02.522Z,-1.02
2023-01-28T07:59:29.875Z,-0.92
2023-01-28T08:01:57.129Z,-0.98
2023-01-28T08:04:24.373Z,-1.17
2023-01-28T08:06:52.391Z,-1.08
2023-01-28T08:09:19.719Z,-1.18
2023-01-28T08:11:46.995Z,-1.17
2023-01-28T08:14:14.436Z,-0.99
2023-01-28T08:16:41.876Z,-1.04
2023-01-28T08:19:09.168Z,-1.07
2023-01-28T08:21:36.479Z,-1.12
2023-01-28T08:24:06.610Z,-1.11
2023-01-28T08:26:33.854Z,-0.86
2023-01-28T08:29:01.091Z,-0.83
2023-01-28T08:31:29.636Z,-0.80
2023-01-28T08:33:56.854Z,-0.83
2023-01-28T08:36:24.162Z,-1.10
2023-01-28T08:38:54.911Z,-0.90
2023-01-28T08:41:22.982Z,-0.76
2023-01-28T08:43:50.386Z,-0.83
2023-01-28T08:46:17.609Z,-0.75
2023-01-28T08:48:44.992Z,-0.95
2023-01-28T08:51:12.217Z,-1.11
2023-01-28T08:53:39.685Z,-1.01
2023-01-28T08:56:07.319Z,-0.76
2023-01-28T08:58:34.510Z,-0.81
2023-01-28T09:01:07.088Z,-0.80
2023-01-28T09:03:36.134Z,-0.93
2023-01-28T09:06:04.618Z,-0.95
2023-01-28T09:08:31.890Z,-1.11
2023-01-28T09:11:00.292Z,-1.04
2023-01-28T09:13:28.544Z,-0.99
2023-01-28T09:15:58.386Z,-0.87
2023-01-28T09:18:25.654Z,-0.84
2023-01-28T09:20:52.878Z,-0.77
2023-01-28T09:23:20.094Z,-0.21
2023-01-28T09:25:47.274Z,-0.11
2023-01-28T09:28:14.502Z,0.09
2023-01-28T09:30:41.775Z,-0.14
2023-01-28T09:33:09.297Z,-0.11
2023-01-28T09:35:37.268Z,0.08
2023-01-28T09:38:04.852Z,0.16
2023-01-28T09:40:42.054Z,0.05
2023-01-28T09:43:51.441Z,-0.02
2023-01-28T09:46:18.863Z,0.04
2023-01-28T09:48:52.942Z,-0.18
2023-01-28T09:51:39.024Z,-0.24
2023-01-28T09:54:39.341Z,-0.63
2023-01-28T09:57:39.240Z,-0.39
2023-01-28T10:00:59.204Z,-0.49
2023-01-28T10:03:53.403Z,-0.48
2023-01-28T10:07:09.755Z,-0.36
2023-01-28T10:09:51.065Z,-0.28
2023-01-28T10:12:42.214Z,-0.32
2023-01-28T10:15:43.476Z,-0.38
2023-01-28T10:18:17.631Z,-0.35
2023-01-28T10:20:57.989Z,-0.31
2023-01-28T10:23:49.393Z,-0.38
2023-01-28T10:26:40.577Z,-0.71
2023-01-28T10:29:31.575Z,-0.82
2023-01-28T10:32:24.848Z,-0.58
2023-01-28T10:34:53.841Z,-0.80
2023-01-28T10:37:22.175Z,-0.54
2023-01-28T10:39:49.544Z,-0.32
2023-01-28T10:42:38.693Z,-0.15
2023-01-28T10:45:24.902Z,-0.35
2023-01-28T10:48:23.097Z,-0.19
2023-01-28T10:51:05.832Z,-0.30
2023-01-28T10:53:44.530Z,-0.28
2023-01-28T10:56:37.784Z,-0.48
2023-01-28T10:59:19.680Z,-0.38
2023-01-28T11:01:52.741Z,-0.38
2023-01-28T11:04:34.713Z,-0.15
2023-01-28T11:07:20.091Z,-0.01
2023-01-28T11:09:50.647Z,0.11
2023-01-28T11:12:28.641Z,-0.09
2023-01-28T11:15:03.519Z,-0.37
2023-01-28T11:17:36.100Z,-0.30
2023-01-28T11:20:21.025Z,-0.19
2023-01-28T11:22:49.996Z,-0.06
2023-01-28T11:25:26.465Z,-0.07
2023-01-28T11:27:55.150Z,-0.09
2023-01-28T11:30:34.629Z,-0.22
2023-01-28T11:33:46.340Z,-0.25
2023-01-28T11:36:34.744Z,-0.58
2023-01-28T11:39:26.054Z,-0.29
2023-01-28T11:41:54.111Z,-0.05
2023-01-28T11:44:25.292Z,-0.07
2023-01-28T11:47:02.989Z,-0.21
2023-01-28T11:50:13.242Z,-0.42
2023-01-28T11:53:29.001Z,-0.22
2023-01-28T11:56:26.406Z,-0.34
2023-01-28T11:59:37.785Z,-0.32
2023-01-28T12:02:44.758Z,-0.63
2023-01-28T12:05:32.647Z,-0.61
2023-01-28T12:08:28.786Z,-0.60
2023-01-28T12:11:46.641Z,-0.49
2023-01-28T12:14:35.879Z,-0.58
2023-01-28T12:17:18.216Z,-0.66
2023-01-28T12:19:59.973Z,-0.52
2023-01-28T12:22:35.518Z,-0.62
2023-01-28T12:25:40.377Z,-0.69
2023-01-28T12:28:52.868Z,-0.82
2023-01-28T12:31:35.105Z,-0.78
2023-01-28T12:34:59.623Z,-0.64
2023-01-28T12:37:50.886Z,-0.47
2023-01-28T12:40:58.643Z,-0.43
2023-01-28T12:43:49.596Z,-0.30
2023-01-28T12:46:38.385Z,-0.34
2023-01-28T12:49:53.072Z,-0.54
2023-01-28T12:52:40.296Z,-0.56
2023-01-28T12:55:35.555Z,-0.61
2023-01-28T12:58:06.423Z,-0.59
2023-01-28T13:00:37.211Z,-0.81
2023-01-28T13:03:28.886Z,-0.52
2023-01-28T13:06:25.329Z,-0.35
2023-01-28T13:09:01.478Z,-0.29
2023-01-28T13:11:36.468Z,-0.38
2023-01-28T13:14:05.725Z,-0.39
2023-01-28T13:16:38.304Z,-0.58
2023-01-28T13:19:09.697Z,-0.58
2023-01-28T13:21:48.686Z,-0.59
2023-01-28T13:24:16.262Z,-0.70
2023-01-28T13:26:57.746Z,-0.54
2023-01-28T13:29:24.861Z,-0.48
2023-01-28T13:31:55.981Z,-0.50
2023-01-28T13:34:40.698Z,-0.41
2023-01-28T13:37:36.967Z,-0.51
2023-01-28T13:40:22.699Z,-0.43
2023-01-28T13:43:28.858Z,-0.41
2023-01-28T13:46:07.654Z,-0.52
2023-01-28T13:48:52.170Z,-0.50
2023-01-28T13:51:32.945Z,-0.26
2023-01-28T13:54:19.229Z,-0.22
2023-01-28T13:57:02.253Z,-0.16
2023-01-28T14:00:13.231Z,-0.04
2023-01-28T14:03:19.203Z,0.00
2023-01-28T14:06:40.208Z,-0.34
2023-01-28T14:09:22.178Z,-0.66
2023-01-28T14:12:24.745Z,-0.59
2023-01-28T14:15:49.462Z,-0.25
2023-01-28T14:18:29.290Z,-0.16
2023-01-28T14:21:01.054Z,-0.22
2023-01-28T14:23:32.083Z,-0.20
2023-01-28T14:26:13.649Z,-0.50
2023-01-28T14:29:19.730Z,-0.42
2023-01-28T14:31:47.960Z,-0.44
2023-01-28T14:34:29.692Z,-0.38
2023-01-28T14:37:13.544Z,-0.54
2023-01-28T14:40:00.232Z,-0.54
2023-01-28T14:42:33.115Z,-0.30
2023-01-28T14:45:23.497Z,-0.23
2023-01-28T14:48:31.515Z,-0.34
2023-01-28T14:51:10.499Z,-0.28
2023-01-28T14:54:05.372Z,-0.48
2023-01-28T14:56:55.723Z,-0.52
2023-01-28T14:59:49.779Z,-0.72
2023-01-28T15:02:26.962Z,-0.62
2023-01-28T15:04:54.754Z,-0.37
2023-01-28T15:07:27.668Z,-0.27
2023-01-28T15:10:05.261Z,-0.33
2023-01-28T15:12:40.086Z,-0.52
2023-01-28T15:15:30.578Z,-0.63
2023-01-28T15:19:00.431Z,-0.69
2023-01-28T15:21:31.024Z,-0.73
2023-01-28T15:24:03.306Z,-0.61
2023-01-28T15:26:35.009Z,-0.58
2023-01-28T15:29:02.353Z,-0.72
2023-01-28T15:31:33.872Z,-0.56
2023-01-28T15:34:17.974Z,-0.73
2023-01-28T15:36:49.732Z,-0.67
2023-01-28T15:39:23.567Z,-0.83
2023-01-28T15:42:06.812Z,-0.75
2023-01-28T15:44:44.172Z,-0.87
2023-01-28T15:47:33.982Z,-0.73
2023-01-28T15:50:06.839Z,-0.71
2023-01-28T15:52:41.070Z,-0.65
2023-01-28T15:55:40.905Z,-0.91
2023-01-28T15:58:21.025Z,-0.82
2023-01-28T16:00:49.438Z,-0.63
2023-01-28T16:03:23.484Z,-0.67
2023-01-28T16:06:09.484Z,-0.61
2023-01-28T16:08:58.970Z,-0.54
2023-01-28T16:11:44.828Z,-0.74
2023-01-28T16:14:37.538Z,-0.67
2023-01-28T16:17:05.446Z,-0.73
2023-01-28T16:19:46.818Z,-0.58
2023-01-28T16:22:39.560Z,-0.62
2023-01-28T16:25:21.763Z,-0.57
2023-01-28T16:27:49.746Z,-0.49
2023-01-28T16:30:18.243Z,-0.55
2023-01-28T16:32:46.029Z,-0.57
2023-01-28T16:35:20.854Z,-0.45
2023-01-28T16:37:49.802Z,-0.43
2023-01-28T16:40:23.671Z,-0.56
2023-01-28T16:42:55.956Z,-0.54
2023-01-28T16:45:26.742Z,-0.57
2023-01-28T16:47:53.793Z,-0.56
2023-01-28T16:50:23.044Z,-0.55
2023-01-28T16:52:53.736Z,-0.56
2023-01-28T16:55:22.632Z,-0.48
2023-01-28T16:57:53.561Z,-0.51
2023-01-28T17:00:26.619Z,-0.50
2023-01-28T17:02:54.964Z,-0.51
2023-01-28T17:05:23.471Z,-0.49
2023-01-28T17:07:51.117Z,-0.52
2023-01-28T17:10:20.613Z,-0.51
2023-01-28T17:12:54.585Z,-0.54
2023-01-28T17:15:21.936Z,-0.41
2023-01-28T17:17:50.738Z,-0.38
2023-01-28T17:20:18.161Z,-0.54
2023-01-28T17:22:45.866Z,-0.49
2023-01-28T17:25:16.609Z,-0.59
2023-01-28T17:27:44.207Z,-0.60
2023-01-28T17:30:12.181Z,-0.57
2023-01-28T17:32:39.383Z,-0.50
2023-01-28T17:35:07.220Z,-0.63
2023-01-28T17:37:34.465Z,-0.56
2023-01-28T17:40:03.081Z,-0.65
2023-01-28T17:42:31.227Z,-0.49
2023-01-28T17:45:03.099Z,-0.44
2023-01-28T17:47:31.140Z,-0.50
2023-01-28T17:49:58.692Z,-0.52
2023-01-28T17:52:26.351Z,-0.55
2023-01-28T17:54:54.017Z,-0.45
2023-01-28T17:57:24.084Z,-0.45
2023-01-28T17:59:51.469Z,-0.40
2023-01-28T18:02:18.820Z,-0.42
2023-01-28T18:04:46.091Z,-0.47
2023-01-28T18:07:13.537Z,-0.45
2023-01-28T18:09:43.979Z,-0.36
2023-01-28T18:12:14.558Z,-0.33
2023-01-28T18:14:42.081Z,-0.32
2023-01-28T18:17:11.149Z,-0.34
2023-01-28T18:19:38.655Z,-0.36
2023-01-28T18:22:08.221Z,-0.35
2023-01-28T18:24:35.492Z,-0.50
2023-01-28T18:27:04.275Z,-0.51
2023-01-28T18:29:31.971Z,-0.45
2023-01-28T18:31:59.779Z,-0.50
2023-01-28T18:34:31.654Z,-0.58
2023-01-28T18:36:59.626Z,-0.54
2023-01-28T18:39:31.542Z,-0.44
2023-01-28T18:42:00.221Z,-0.46
2023-01-28T18:44:33.233Z,-0.58
2023-01-28T18:47:00.651Z,-0.47
2023-01-28T18:49:27.932Z,-0.45
2023-01-28T18:51:55.190Z,-0.49
2023-01-28T18:54:23.438Z,-0.51
2023-01-28T18:56:50.824Z,-0.53
2023-01-28T18:59:18.196Z,-0.55
2023-01-28T19:01:48.015Z,-0.82
2023-01-28T19:04:16.433Z,-0.61
2023-01-28T19:06:43.999Z,-0.62
2023-01-28T19:09:14.509Z,-0.59
2023-01-28T19:11:42.866Z,-0.57
2023-01-28T19:14:14.584Z,-0.61
2023-01-28T19:16:44.276Z,-0.55
2023-01-28T19:19:12.242Z,-0.48
2023-01-28T19:21:39.737Z,-0.52
2023-01-28T19:24:10.809Z,-0.47
2023-01-28T19:26:41.660Z,-0.42
2023-01-28T19:29:10.555Z,-0.47
2023-01-28T19:31:39.212Z,-0.47
2023-01-28T19:34:06.945Z,-0.49
2023-01-28T19:36:34.846Z,-0.49
2023-01-28T19:39:07.144Z,-0.66
2023-01-28T19:41:35.330Z,-0.55
2023-01-28T19:44:05.568Z,-0.50
2023-01-28T19:46:36.159Z,-0.40
2023-01-28T19:49:06.433Z,-0.44
2023-01-28T19:51:33.974Z,-0.38
2023-01-28T19:54:01.481Z,-0.45
2023-01-28T19:56:30.010Z,-0.38
2023-01-28T19:58:57.471Z,-0.38
2023-01-28T20:01:30.157Z,-0.38
2023-01-28T20:04:00.571Z,-0.37
2023-01-28T20:06:33.471Z,-0.38
2023-01-28T20:09:15.468Z,-0.38
2023-01-28T20:11:43.070Z,-0.42
2023-01-28T20:14:10.497Z,-0.37
2023-01-28T20:16:40.265Z,-0.32
2023-01-28T20:19:14.498Z,-0.18
2023-01-28T20:21:42.240Z,-0.09
2023-01-28T20:24:12.499Z,-0.01
2023-01-28T20:26:42.302Z,0.02
2023-01-28T20:29:18.080Z,-0.03
2023-01-28T20:31:46.017Z,0.07
2023-01-28T20:34:20.127Z,-0.10
2023-01-28T20:36:47.654Z,-0.11
2023-01-28T20:39:15.045Z,-0.13
2023-01-28T20:41:42.325Z,-0.16
2023-01-28T20:44:09.627Z,-0.35
2023-01-28T20:46:38.591Z,-0.32
2023-01-28T20:49:10.251Z,-0.35
2023-01-28T20:51:38.343Z,-0.39
2023-01-28T20:54:06.246Z,-0.31
2023-01-28T20:56:33.876Z,-0.29
2023-01-28T20:59:04.733Z,-0.27
2023-01-28T21:01:35.388Z,-0.34
2023-01-28T21:04:04.332Z,-0.37
2023-01-28T21:06:31.965Z,-0.32
2023-01-28T21:08:59.817Z,-0.31
2023-01-28T21:11:27.727Z,-0.45
2023-01-28T21:13:55.703Z,-0.52
2023-01-28T21:16:24.313Z,-0.37
2023-01-28T21:18:52.206Z,-0.51
2023-01-28T21:21:26.374Z,-0.45
2023-01-28T21:23:58.108Z,-0.40
2023-01-28T21:26:26.742Z,-0.32
2023-01-28T21:28:56.998Z,-0.38
2023-01-28T21:31:26.612Z,-0.36
2023-01-28T21:33:56.921Z,-0.34
2023-01-28T21:36:26.080Z,-0.31
2023-01-28T21:38:59.969Z,-0.30
2023-01-28T21:41:28.083Z,-0.17
2023-01-28T21:43:57.658Z,-0.09
2023-01-28T21:46:34.289Z,-0.01
2023-01-28T21:49:04.157Z,0.04
2023-01-28T21:51:36.570Z,0.08
2023-01-28T21:54:12.983Z,-0.01
2023-01-28T21:56:46.424Z,-0.03
2023-01-28T21:59:30.865Z,0.05
2023-01-28T22:02:11.069Z,0.02
2023-01-28T22:04:46.744Z,-0.43
2023-01-28T22:07:18.283Z,-0.48
2023-01-28T22:09:47.128Z,-0.64
2023-01-28T22:12:15.502Z,-0.62
2023-01-28T22:14:43.632Z,-0.59
2023-01-28T22:17:12.038Z,-0.65
2023-01-28T22:19:39.974Z,-0.59
2023-01-28T22:22:07.240Z,-0.57
2023-01-28T22:24:34.644Z,-0.48
2023-01-28T22:27:06.394Z,-0.59
2023-01-28T22:29:33.605Z,-0.54
2023-01-28T22:32:04.222Z,-0.56
2023-01-28T22:34:31.783Z,-0.64
2023-01-28T22:36:59.193Z,-0.69
2023-01-28T22:39:26.435Z,-0.81
2023-01-28T22:41:53.660Z,-1.00
2023-01-28T22:44:20.977Z,-0.97
2023-01-28T22:46:48.393Z,-1.03
2023-01-28T22:49:15.616Z,-1.14
2023-01-28T22:51:43.031Z,-1.27
2023-01-28T22:54:12.272Z,-1.52
2023-01-28T22:56:40.242Z,-1.40
2023-01-28T22:59:07.572Z,-1.36
2023-01-28T23:01:35.945Z,-1.59
2023-01-28T23:04:03.938Z,-1.96
2023-01-28T23:06:31.747Z,-1.93
2023-01-28T23:08:59.200Z,-1.79
2023-01-28T23:11:29.174Z,-2.09
2023-01-28T23:14:18.076Z,-2.32
2023-01-28T23:17:04.154Z,-2.27
2023-01-28T23:19:50.497Z,-2.59
2023-01-28T23:22:46.658Z,-2.33
2023-01-28T23:25:14.291Z,-2.47
2023-01-28T23:27:42.418Z,-2.37
2023-01-28T23:30:11.678Z,-2.54
2023-01-28T23:32:47.125Z,-2.44
2023-01-28T23:35:14.965Z,-2.47
2023-01-28T23:37:42.215Z,-2.34
2023-01-28T23:40:12.658Z,-2.42
2023-01-28T23:42:39.946Z,-2.58
2023-01-28T23:45:08.338Z,-2.39
2023-01-28T23:47:35.518Z,-2.56
2023-01-28T23:50:03.043Z,-2.46
2023-01-28T23:52:30.288Z,-2.49
2023-01-28T23:54:57.514Z,-2.42
2023-01-28T23:57:24.807Z,-2.67
2023-01-28T23:59:52.015Z,-2.72
